createdAt,value
2022-09-03T00:00:33.091Z,32.53
2022-09-03T00:03:35.004Z,28.17
2022-09-03T00:06:28.560Z,26.83
2022-09-03T00:09:06.617Z,33.42
2022-09-03T00:11:49.032Z,28.92
2022-09-03T00:14:26.764Z,23.02
2022-09-03T00:17:04.544Z,26.25
2022-09-03T00:19:48.789Z,30.17
2022-09-03T00:22:24.791Z,34.30
2022-09-03T00:24:53.861Z,33.15
2022-09-03T00:27:26.544Z,30.35
2022-09-03T00:30:17.143Z,35.33
2022-09-03T00:32:49.016Z,27.45
2022-09-03T00:36:05.067Z,31.98
2022-09-03T00:38:34.678Z,45.05
2022-09-03T00:41:09.245Z,43.83
2022-09-03T00:44:06.439Z,42.38
2022-09-03T00:46:37.122Z,40.97
2022-09-03T00:49:30.170Z,37.25
2022-09-03T00:52:28.816Z,41.50
2022-09-03T00:55:04.138Z,39.05
2022-09-03T00:57:32.115Z,33.30
2022-09-03T01:00:08.841Z,27.80
2022-09-03T01:02:58.631Z,25.35
2022-09-03T01:05:47.389Z,26.00
2022-09-03T01:08:32.930Z,22.42
2022-09-03T01:11:20.585Z,22.75
2022-09-03T01:14:10.215Z,17.65
2022-09-03T01:16:45.249Z,16.73
2022-09-03T01:19:58.099Z,18.70
2022-09-03T01:22:45.134Z,19.33
2022-09-03T01:25:34.352Z,19.75
2022-09-03T01:28:23.332Z,20.80
2022-09-03T01:31:30.301Z,17.10
2022-09-03T01:34:24.011Z,18.65
2022-09-03T01:37:29.597Z,17.42
2022-09-03T01:40:30.505Z,19.80
2022-09-03T01:43:21.760Z,18.88
2022-09-03T01:46:03.296Z,18.13
2022-09-03T01:48:37.362Z,19.85
2022-09-03T01:51:23.599Z,17.67
2022-09-03T01:54:23.161Z,16.10
2022-09-03T01:57:34.861Z,23.98
2022-09-03T02:00:23.057Z,20.38
2022-09-03T02:02:53.576Z,16.98
2022-09-03T02:05:27.756Z,17.08
2022-09-03T02:08:02.008Z,17.85
2022-09-03T02:10:50.338Z,17.48
2022-09-03T02:13:30.770Z,15.90
2022-09-03T02:16:04.245Z,16.25
2022-09-03T02:18:44.162Z,17.27
2022-09-03T02:23:43.073Z,16.00
2022-09-03T02:26:15.134Z,15.88
2022-09-03T02:28:43.236Z,16.05
2022-09-03T02:31:11.800Z,13.43
2022-09-03T02:33:45.289Z,16.52
2022-09-03T02:36:19.141Z,17.15
2022-09-03T02:38:48.393Z,12.93
2022-09-03T02:41:17.429Z,15.00
2022-09-03T02:43:48.505Z,12.57
2022-09-03T02:46:27.690Z,13.43
2022-09-03T02:48:56.633Z,14.32
2022-09-03T02:51:24.986Z,12.75
2022-09-03T02:53:56.764Z,13.70
2022-09-03T02:56:28.575Z,16.30
2022-09-03T02:58:57.638Z,11.85
2022-09-03T03:01:27.118Z,12.13
2022-09-03T03:03:55.187Z,10.60
2022-09-03T03:06:23.507Z,10.98
2022-09-03T03:08:52.376Z,10.10
2022-09-03T03:11:20.601Z,8.40
2022-09-03T03:13:50.152Z,6.13
2022-09-03T03:16:20.641Z,7.32
2022-09-03T03:18:48.777Z,8.30
2022-09-03T03:21:18.333Z,6.18
2022-09-03T03:23:46.905Z,5.95
2022-09-03T03:26:20.901Z,8.23
2022-09-03T03:28:52.942Z,6.35
2022-09-03T03:31:23.129Z,5.70
2022-09-03T03:33:56.556Z,4.95
2022-09-03T03:36:26.729Z,8.20
2022-09-03T03:38:57.148Z,5.13
2022-09-03T03:41:32.794Z,5.60
2022-09-03T03:44:06.865Z,5.22
2022-09-03T03:46:40.511Z,6.93
2022-09-03T03:49:09.452Z,5.88
2022-09-03T03:51:38.708Z,6.85
2022-09-03T03:54:08.521Z,5.90
2022-09-03T03:56:36.626Z,6.82
2022-09-03T03:59:05.657Z,4.47
2022-09-03T04:01:52.840Z,4.13
2022-09-03T04:04:20.869Z,4.10
2022-09-03T04:06:48.950Z,6.80
2022-09-03T04:09:18.645Z,6.78
2022-09-03T04:12:23.817Z,4.57
2022-09-03T04:14:54.349Z,8.88
2022-09-03T04:17:25.237Z,5.10
2022-09-03T04:19:53.594Z,4.50
2022-09-03T04:22:21.855Z,4.50
2022-09-03T04:24:49.886Z,4.22
2022-09-03T04:27:17.935Z,7.35
2022-09-03T04:29:47.210Z,5.15
2022-09-03T04:32:33.376Z,3.50
2022-09-03T04:35:02.355Z,3.60
2022-09-03T04:37:31.549Z,5.00
2022-09-03T04:40:08.954Z,3.80
2022-09-03T04:42:41.023Z,8.77
2022-09-03T04:45:10.127Z,5.43
2022-09-03T04:47:38.652Z,7.40
2022-09-03T04:50:08.098Z,4.78
2022-09-03T04:55:20.767Z,5.15
2022-09-03T04:57:48.837Z,4.68
2022-09-03T05:00:19.594Z,3.78
2022-09-03T05:02:50.319Z,7.72
2022-09-03T05:05:19.801Z,3.40
2022-09-03T05:07:47.912Z,4.68
2022-09-03T05:10:21.116Z,4.50
2022-09-03T05:12:58.655Z,5.72
2022-09-03T05:15:34.187Z,5.68
2022-09-03T05:18:03.080Z,4.13
2022-09-03T05:20:33.235Z,3.30
2022-09-03T05:23:05.295Z,4.15
2022-09-03T05:25:33.587Z,4.82
2022-09-03T05:28:02.473Z,2.97
2022-09-03T05:30:31.660Z,7.43
2022-09-03T05:32:59.798Z,4.43
2022-09-03T05:35:27.883Z,16.90
2022-09-03T05:38:00.241Z,8.63
2022-09-03T05:40:28.330Z,5.45
2022-09-03T05:43:18.067Z,8.93
2022-09-03T05:45:46.161Z,3.75
2022-09-03T05:48:14.136Z,3.25
2022-09-03T05:50:42.351Z,4.25
2022-09-03T05:53:10.289Z,3.17
2022-09-03T05:55:38.254Z,2.80
2022-09-03T05:58:07.446Z,4.15
2022-09-03T06:00:35.361Z,3.90
2022-09-03T06:03:03.871Z,3.08
2022-09-03T06:05:32.139Z,6.15
2022-09-03T06:08:00.080Z,6.28
2022-09-03T06:10:34.338Z,10.48
2022-09-03T06:13:07.060Z,9.45
2022-09-03T06:15:37.123Z,5.40
2022-09-03T06:18:06.372Z,4.97
2022-09-03T06:20:37.345Z,5.27
2022-09-03T06:23:05.376Z,4.70
2022-09-03T06:25:33.682Z,5.53
2022-09-03T06:28:02.987Z,4.55
2022-09-03T06:30:30.937Z,4.97
2022-09-03T06:32:59.872Z,3.63
2022-09-03T06:35:29.531Z,4.63
2022-09-03T06:38:01.031Z,3.47
2022-09-03T06:40:29.413Z,13.55
2022-09-03T06:43:02.893Z,34.22
2022-09-03T06:45:31.728Z,5.88
2022-09-03T06:47:59.811Z,11.05
2022-09-03T06:50:31.323Z,5.15
2022-09-03T06:53:01.931Z,6.85
2022-09-03T06:55:32.350Z,4.28
2022-09-03T06:58:00.474Z,6.93
2022-09-03T07:00:29.334Z,7.57
2022-09-03T07:03:01.493Z,6.38
2022-09-03T07:05:29.754Z,4.90
2022-09-03T07:07:57.911Z,5.53
2022-09-03T07:10:29.119Z,5.55
2022-09-03T07:12:57.176Z,5.60
2022-09-03T07:15:27.107Z,5.22
2022-09-03T07:17:59.046Z,4.95
2022-09-03T07:20:27.350Z,4.88
2022-09-03T07:22:58.665Z,4.82
2022-09-03T07:25:29.443Z,6.53
2022-09-03T07:27:57.664Z,3.67
2022-09-03T07:30:27.340Z,6.22
2022-09-03T07:32:57.901Z,3.47
2022-09-03T07:35:26.517Z,5.15
2022-09-03T07:40:24.751Z,5.40
2022-09-03T07:43:02.846Z,8.15
2022-09-03T07:45:34.453Z,7.03
2022-09-03T07:48:02.635Z,4.00
2022-09-03T07:50:34.638Z,5.57
2022-09-03T07:53:04.250Z,5.53
2022-09-03T07:55:32.326Z,4.63
2022-09-03T07:58:00.429Z,4.78
2022-09-03T08:00:30.254Z,3.35
2022-09-03T08:03:00.604Z,3.50
2022-09-03T08:05:28.794Z,5.35
2022-09-03T08:07:57.658Z,37.92
2022-09-03T08:10:27.328Z,8.02
2022-09-03T08:12:55.326Z,4.85
2022-09-03T08:15:23.658Z,5.90
2022-09-03T08:17:51.809Z,8.93
2022-09-03T08:20:21.285Z,6.97
2022-09-03T08:22:53.471Z,5.25
2022-09-03T08:25:21.602Z,4.63
2022-09-03T08:27:49.698Z,4.93
2022-09-03T08:30:18.490Z,6.30
2022-09-03T08:32:46.550Z,5.35
2022-09-03T08:35:14.691Z,7.15
2022-09-03T08:37:44.205Z,8.25
2022-09-03T08:40:27.206Z,4.97
2022-09-03T08:43:22.245Z,6.43
2022-09-03T08:45:50.562Z,4.45
2022-09-03T08:48:26.014Z,4.30
2022-09-03T08:51:01.012Z,4.68
2022-09-03T08:53:46.148Z,4.68
2022-09-03T08:56:26.063Z,3.90
2022-09-03T09:01:37.892Z,5.20
2022-09-03T09:04:44.438Z,8.10
2022-09-03T09:07:22.815Z,6.70
2022-09-03T09:10:21.087Z,10.90
2022-09-03T09:13:12.922Z,4.68
2022-09-03T09:16:00.320Z,6.65
2022-09-03T09:18:47.313Z,5.43
2022-09-03T09:21:27.525Z,4.95
2022-09-03T09:24:04.041Z,4.93
2022-09-03T09:26:32.402Z,9.63
2022-09-03T09:29:12.323Z,11.98
2022-09-03T09:34:09.898Z,15.50
2022-09-03T09:36:47.350Z,16.98
2022-09-03T09:39:18.572Z,12.52
2022-09-03T09:42:26.065Z,9.90
2022-09-03T09:44:54.208Z,10.98
2022-09-03T09:47:25.250Z,11.18
2022-09-03T09:49:58.707Z,11.30
2022-09-03T09:52:30.383Z,21.67
2022-09-03T09:55:20.949Z,9.38
2022-09-03T10:00:35.805Z,23.20
2022-09-03T10:03:11.991Z,17.27
2022-09-03T10:05:41.736Z,16.38
2022-09-03T10:08:23.087Z,19.67
2022-09-03T10:10:53.105Z,22.38
2022-09-03T10:16:31.097Z,71.75
2022-09-03T10:19:12.637Z,63.67
2022-09-03T10:22:16.489Z,124.90
2022-09-03T10:24:59.827Z,87.50
2022-09-03T10:27:29.456Z,118.82
2022-09-03T10:30:01.594Z,67.28
2022-09-03T10:32:47.806Z,154.18
2022-09-03T10:35:42.819Z,157.32
2022-09-03T10:38:37.979Z,73.85
2022-09-03T10:41:44.599Z,13.13
2022-09-03T10:44:46.914Z,13.50
2022-09-03T10:47:40.609Z,10.05
2022-09-03T10:50:25.555Z,10.32
2022-09-03T10:52:54.070Z,15.20
2022-09-03T10:55:52.182Z,13.48
2022-09-03T10:58:41.587Z,16.15
2022-09-03T11:01:40.297Z,18.85
2022-09-03T11:04:26.717Z,12.63
2022-09-03T11:07:10.617Z,14.10
2022-09-03T11:10:06.991Z,14.95
2022-09-03T11:12:57.140Z,11.88
2022-09-03T11:15:36.040Z,16.90
2022-09-03T11:18:50.130Z,23.43
2022-09-03T11:21:26.206Z,16.67
2022-09-03T11:24:24.590Z,18.15
2022-09-03T11:27:15.868Z,17.65
2022-09-03T11:29:58.809Z,18.55
2022-09-03T11:32:42.198Z,14.98
2022-09-03T11:35:43.576Z,11.98
2022-09-03T11:38:17.787Z,9.25
2022-09-03T11:41:07.182Z,14.65
2022-09-03T11:43:36.254Z,17.38
2022-09-03T11:46:07.513Z,15.40
2022-09-03T11:48:45.381Z,18.90
2022-09-03T11:51:32.625Z,25.58
2022-09-03T11:54:25.254Z,24.08
2022-09-03T11:57:11.316Z,21.02
2022-09-03T11:59:43.227Z,30.73
2022-09-03T12:02:34.193Z,30.13
2022-09-03T12:05:12.012Z,44.38
2022-09-03T12:07:49.933Z,31.92
2022-09-03T12:10:28.927Z,39.95
2022-09-03T12:13:09.310Z,41.75
2022-09-03T12:16:14.713Z,38.55
2022-09-03T12:18:44.300Z,47.28
2022-09-03T12:21:13.074Z,53.53
2022-09-03T12:23:45.783Z,58.17
2022-09-03T12:26:20.505Z,70.88
2022-09-03T12:28:55.283Z,79.47
2022-09-03T12:31:30.550Z,47.05
2022-09-03T12:34:06.118Z,29.77
2022-09-03T12:36:42.782Z,18.95
2022-09-03T12:42:21.869Z,22.33
2022-09-03T12:44:50.706Z,24.35
2022-09-03T12:47:37.768Z,23.55
2022-09-03T12:50:21.361Z,22.33
2022-09-03T12:53:00.158Z,16.48
2022-09-03T12:55:46.210Z,29.02
2022-09-03T12:58:20.144Z,44.55
2022-09-03T13:01:08.852Z,55.45
2022-09-03T13:03:58.595Z,53.03
2022-09-03T13:06:34.569Z,48.63
2022-09-03T13:09:07.099Z,50.53
2022-09-03T13:11:39.986Z,62.80
2022-09-03T13:14:11.973Z,99.28
2022-09-03T13:17:07.090Z,70.40
2022-09-03T13:20:00.363Z,86.55
2022-09-03T13:22:40.731Z,64.10
2022-09-03T13:25:20.579Z,45.15
2022-09-03T13:28:03.504Z,35.20
2022-09-03T13:30:51.947Z,43.20
2022-09-03T13:33:29.211Z,27.50
2022-09-03T13:36:11.044Z,21.40
2022-09-03T13:38:52.617Z,21.88
2022-09-03T13:41:51.826Z,24.08
2022-09-03T13:44:30.409Z,20.10
2022-09-03T13:47:26.700Z,23.40
2022-09-03T13:50:27.570Z,29.83
2022-09-03T13:53:03.695Z,22.35
2022-09-03T13:55:37.841Z,34.42
2022-09-03T13:58:25.574Z,50.28
2022-09-03T14:00:58.926Z,32.47
2022-09-03T14:03:37.329Z,34.97
2022-09-03T14:06:47.709Z,25.15
2022-09-03T14:09:42.137Z,47.85
2022-09-03T14:12:47.581Z,32.70
2022-09-03T14:15:32.003Z,24.63
2022-09-03T14:18:24.943Z,18.42
2022-09-03T14:21:17.401Z,14.88
2022-09-03T14:23:54.826Z,11.77
2022-09-03T14:26:39.769Z,13.98
2022-09-03T14:29:14.796Z,11.75
2022-09-03T14:31:53.402Z,10.85
2022-09-03T14:34:54.447Z,17.02
2022-09-03T14:37:50.307Z,19.08
2022-09-03T14:40:46.080Z,21.23
2022-09-03T14:43:17.347Z,16.80
2022-09-03T14:46:24.003Z,17.95
2022-09-03T14:49:01.053Z,10.95
2022-09-03T14:52:13.557Z,12.70
2022-09-03T14:55:04.990Z,10.05
2022-09-03T14:57:41.145Z,13.90
2022-09-03T15:00:20.166Z,13.02
2022-09-03T15:03:13.091Z,12.48
2022-09-03T15:05:52.596Z,9.27
2022-09-03T15:08:50.761Z,12.57
2022-09-03T15:11:25.878Z,14.27
2022-09-03T15:14:16.923Z,9.25
2022-09-03T15:16:50.866Z,11.82
2022-09-03T15:19:27.498Z,9.65
2022-09-03T15:22:28.659Z,11.55
2022-09-03T15:25:23.806Z,9.75
2022-09-03T15:28:02.081Z,9.30
2022-09-03T15:31:18.938Z,10.95
2022-09-03T15:34:18.288Z,8.77
2022-09-03T15:36:55.239Z,10.47
2022-09-03T15:39:38.138Z,8.32
2022-09-03T15:42:11.759Z,6.80
2022-09-03T15:44:59.454Z,9.00
2022-09-03T15:47:51.885Z,7.22
2022-09-03T15:50:39.402Z,6.28
2022-09-03T15:53:25.137Z,6.07
2022-09-03T15:56:13.973Z,7.03
2022-09-03T15:59:08.328Z,7.60
2022-09-03T16:01:45.614Z,7.35
2022-09-03T16:04:16.858Z,8.70
2022-09-03T16:06:48.144Z,7.28
2022-09-03T16:09:39.249Z,9.15
2022-09-03T16:12:31.630Z,8.02
2022-09-03T16:15:20.707Z,6.47
2022-09-03T16:18:08.691Z,7.50
2022-09-03T16:21:01.104Z,6.13
2022-09-03T16:23:53.907Z,7.80
2022-09-03T16:26:35.234Z,8.40
2022-09-03T16:29:14.945Z,10.82
2022-09-03T16:31:58.384Z,6.68
2022-09-03T16:34:37.834Z,9.45
2022-09-03T16:37:49.117Z,8.18
2022-09-03T16:40:41.239Z,8.00
2022-09-03T16:43:41.093Z,7.50
2022-09-03T16:46:12.746Z,7.57
2022-09-03T16:49:09.121Z,7.68
2022-09-03T16:52:06.378Z,8.25
2022-09-03T16:54:57.239Z,8.43
2022-09-03T16:57:33.847Z,7.95
2022-09-03T17:00:12.796Z,9.77
2022-09-03T17:03:26.359Z,61.03
2022-09-03T17:06:01.725Z,59.78
2022-09-03T17:08:44.584Z,42.92
2022-09-03T17:11:54.984Z,24.27
2022-09-03T17:14:40.984Z,17.40
2022-09-03T17:17:46.164Z,16.85
2022-09-03T17:20:24.110Z,10.27
2022-09-03T17:23:06.274Z,7.32
2022-09-03T17:25:38.469Z,10.73
2022-09-03T17:28:30.053Z,6.10
2022-09-03T17:31:22.835Z,6.22
2022-09-03T17:33:58.312Z,9.15
2022-09-03T17:36:32.229Z,6.57
2022-09-03T17:39:19.216Z,7.03
2022-09-03T17:42:17.202Z,5.43
2022-09-03T17:45:12.543Z,8.52
2022-09-03T17:47:57.114Z,6.88
2022-09-03T17:50:36.234Z,9.10
2022-09-03T17:53:19.013Z,5.93
2022-09-03T17:56:02.071Z,9.00
2022-09-03T17:58:37.943Z,6.07
2022-09-03T18:01:13.979Z,9.38
2022-09-03T18:03:52.495Z,6.43
2022-09-03T18:06:44.501Z,5.97
2022-09-03T18:09:32.713Z,5.85
2022-09-03T18:12:21.162Z,9.02
2022-09-03T18:15:00.366Z,8.20
2022-09-03T18:17:44.198Z,9.13
2022-09-03T18:20:33.904Z,7.47
2022-09-03T18:23:46.515Z,7.85
2022-09-03T18:26:41.766Z,7.15
2022-09-03T18:29:54.534Z,9.68
2022-09-03T18:32:41.394Z,7.47
2022-09-03T18:35:31.075Z,9.90
2022-09-03T18:41:17.312Z,8.43
2022-09-03T18:44:20.196Z,8.02
2022-09-03T18:51:03.040Z,10.35
2022-09-03T18:54:05.309Z,7.00
2022-09-03T18:57:02.854Z,8.70
2022-09-03T19:00:08.185Z,7.72
2022-09-03T19:03:20.349Z,8.05
2022-09-03T19:06:35.012Z,8.05
2022-09-03T19:09:46.353Z,9.35
2022-09-03T19:12:59.252Z,11.00
2022-09-03T19:16:03.690Z,9.73
2022-09-03T19:19:14.132Z,7.80
2022-09-03T19:22:11.768Z,12.18
2022-09-03T19:24:58.222Z,8.98
2022-09-03T19:28:00.275Z,9.07
2022-09-03T19:31:18.689Z,13.52
2022-09-03T19:34:28.630Z,8.90
2022-09-03T19:37:51.003Z,10.45
2022-09-03T19:40:37.708Z,10.90
2022-09-03T19:43:53.048Z,10.20
2022-09-03T19:47:00.769Z,10.32
2022-09-03T19:50:22.645Z,10.48
2022-09-03T19:53:17.777Z,9.23
2022-09-03T19:56:52.728Z,9.27
2022-09-03T19:59:42.841Z,9.50
2022-09-03T20:02:32.165Z,10.55
2022-09-03T20:05:21.190Z,11.32
2022-09-03T20:08:14.193Z,16.38
2022-09-03T20:10:44.941Z,13.50
2022-09-03T20:13:15.754Z,14.35
2022-09-03T20:16:08.498Z,11.27
2022-09-03T20:18:56.099Z,10.35
2022-09-03T20:21:26.883Z,8.25
2022-09-03T20:24:16.331Z,10.07
2022-09-03T20:27:04.067Z,9.50
2022-09-03T20:29:46.706Z,10.65
2022-09-03T20:32:35.057Z,9.27
2022-09-03T20:35:02.947Z,10.95
2022-09-03T20:37:55.153Z,9.70
2022-09-03T20:40:41.439Z,10.15
2022-09-03T20:43:43.727Z,12.02
2022-09-03T20:46:32.955Z,10.27
2022-09-03T20:49:25.361Z,11.45
2022-09-03T20:52:07.272Z,15.35
2022-09-03T20:54:43.140Z,10.50
2022-09-03T20:57:29.346Z,10.65
2022-09-03T21:00:09.111Z,11.55
2022-09-03T21:02:59.169Z,12.77
2022-09-03T21:06:09.101Z,13.02
2022-09-03T21:09:01.539Z,11.10
2022-09-03T21:12:28.161Z,13.95
2022-09-03T21:15:26.275Z,10.88
2022-09-03T21:18:31.573Z,15.50
2022-09-03T21:21:27.913Z,12.43
2022-09-03T21:24:37.641Z,11.25
2022-09-03T21:27:14.857Z,13.40
2022-09-03T21:30:05.584Z,13.32
2022-09-03T21:32:42.793Z,16.02
2022-09-03T21:35:37.436Z,12.88
2022-09-03T21:38:09.201Z,11.00
2022-09-03T21:40:53.996Z,10.98
2022-09-03T21:43:47.737Z,12.80
2022-09-03T21:46:38.208Z,16.98
2022-09-03T21:49:11.517Z,12.65
2022-09-03T21:51:45.887Z,12.18
2022-09-03T21:54:30.071Z,13.90
2022-09-03T21:57:37.950Z,14.55
2022-09-03T22:00:10.195Z,13.65
2022-09-03T22:02:38.678Z,11.27
2022-09-03T22:05:07.816Z,11.73
2022-09-03T22:08:15.136Z,13.07
2022-09-03T22:10:54.176Z,10.82
2022-09-03T22:13:50.701Z,10.60
2022-09-03T22:16:28.719Z,13.70
2022-09-03T22:18:56.875Z,12.18
2022-09-03T22:21:32.119Z,14.73
2022-09-03T22:24:24.877Z,11.75
2022-09-03T22:27:16.421Z,11.37
2022-09-03T22:30:14.573Z,13.45
2022-09-03T22:33:19.745Z,13.95
2022-09-03T22:36:19.748Z,11.13
2022-09-03T22:42:08.395Z,10.77
2022-09-03T22:45:06.737Z,12.57
2022-09-03T22:48:07.554Z,13.02
2022-09-03T22:50:52.235Z,12.25
2022-09-03T22:53:33.458Z,15.20
2022-09-03T22:56:01.435Z,12.85
2022-09-03T22:58:36.065Z,14.55
2022-09-03T23:01:44.886Z,14.45
2022-09-03T23:04:35.051Z,13.57
2022-09-03T23:07:22.355Z,13.88
2022-09-03T23:10:02.750Z,16.02
2022-09-03T23:12:41.898Z,11.68
2022-09-03T23:15:16.718Z,14.13
2022-09-03T23:17:52.281Z,17.77
2022-09-03T23:20:26.150Z,12.50
2022-09-03T23:23:09.585Z,12.32
2022-09-03T23:25:44.108Z,15.43
2022-09-03T23:28:24.065Z,14.75
2022-09-03T23:30:53.092Z,12.93
2022-09-03T23:33:21.263Z,15.35
2022-09-03T23:36:02.043Z,13.43
2022-09-03T23:39:02.563Z,13.63
2022-09-03T23:41:53.305Z,12.63
2022-09-03T23:44:52.210Z,13.38
2022-09-03T23:47:44.903Z,13.85
2022-09-03T23:50:40.776Z,13.93
2022-09-03T23:53:31.098Z,15.13
2022-09-03T23:56:17.369Z,16.52
2022-09-03T23:58:51.365Z,13.57
